Arches Natl Park, Utah
Current Conditions -  °F | °C
As of 1:53 AM on Tuesday 21 Oct 2014 (Local Time) from KCNY Reporting Station
Broken Clouds Broken Clouds  
Wind Chill: 59°   Ceiling: 9500
Heat Index: 59°   Visibility: 10mi
Dew Point: 39°   Wind: 0mph
Humidity: 48%   Direction: NA
Pressure: 30"   Gusts: NA
Location:  38.7°N, 109.75°W
Report Text: KCNY 210753Z AUTO 00000KT 10SM BKN095 15/04 A3000 RMK AO2 SLP112 T01500039
Loading
Personal Weather Stations






























Interactive Weather Map
Tropical Storm Tracking
New forecast layout! Learn more

10-Day Weather Forecast

Advertisements
Track Severe Weather on mobile